Time;durP1;ratioP1;P1;durP2;ratioP2;P2;SDS_P1;SDS_P2;PMS_P1;PMS_P2;Temp;Humidity;BMP_temperature;BMP_pressure;BME280_temperature;BME280_humidity;BME280_pressure;Samples;Min_cycle;Max_cycle;Signal;HPM_P1;HPM_P2
2023/12/20 00:06:48;;;;;;;65.82;46.88;;;;;;;22.68;60.08;100312.19;20892013;28;20220;-42
2023/12/20 00:16:51;;;;;;;56.47;41.03;;;;;;;22.68;59.60;100300.00;20901019;28;20210;-45
2023/12/20 00:26:53;;;;;;;58.80;41.75;;;;;;;22.69;59.63;100301.66;20904719;28;20310;-48
2023/12/20 00:36:56;;;;;;;54.65;39.20;;;;;;;22.66;59.61;100323.06;20900611;28;20298;-41
2023/12/20 00:46:58;;;;;;;53.15;37.75;;;;;;;22.62;59.42;100324.97;20888519;28;20791;-40
2023/12/20 00:57:01;;;;;;;48.78;36.22;;;;;;;22.63;58.74;100340.78;20897368;28;20638;-51
2023/12/20 01:07:03;;;;;;;47.13;34.65;;;;;;;22.67;58.44;100360.75;20905830;28;20314;-48
2023/12/20 01:17:06;;;;;;;47.22;33.88;;;;;;;22.66;58.60;100354.25;20893237;28;20204;-52
2023/12/20 01:27:08;;;;;;;44.22;31.33;;;;;;;22.65;58.19;100358.28;20896564;28;20234;-40
2023/12/20 01:37:12;;;;;;;41.38;30.08;;;;;;;22.68;58.62;100368.09;20886320;28;20621;-49
2023/12/20 01:47:14;;;;;;;40.47;29.25;;;;;;;22.71;58.52;100378.72;20889173;28;20274;-42
2023/12/20 01:57:17;;;;;;;36.78;27.20;;;;;;;22.72;58.56;100374.69;20913128;28;20579;-38
2023/12/20 02:07:19;;;;;;;36.83;26.58;;;;;;;22.75;58.10;100374.78;20909066;28;20511;-47
2023/12/20 02:17:23;;;;;;;37.08;25.13;;;;;;;22.74;58.38;100360.94;20917652;28;20290;-53
2023/12/20 02:27:26;;;;;;;32.95;23.60;;;;;;;22.68;59.22;100357.56;20887327;28;20534;-50
2023/12/20 02:37:28;;;;;;;31.15;22.65;;;;;;;22.46;59.28;100352.47;20899256;28;20204;-49
2023/12/20 02:47:31;;;;;;;29.23;21.13;;;;;;;22.46;58.73;100372.31;20912176;28;20246;-49
2023/12/20 02:57:33;;;;;;;28.27;20.30;;;;;;;22.37;58.27;100351.81;20902038;28;20630;-50
2023/12/20 03:07:37;;;;;;;28.10;19.02;;;;;;;22.31;58.20;100370.28;20894249;28;20285;-49
2023/12/20 03:17:39;;;;;;;25.15;17.75;;;;;;;22.24;57.90;100361.53;20891031;28;20200;-51
2023/12/20 03:27:42;;;;;;;23.17;16.33;;;;;;;22.20;57.84;100363.47;20904763;28;20220;-53
2023/12/20 03:37:44;;;;;;;25.00;17.13;;;;;;;22.11;58.13;100360.75;20900659;28;20582;-51
2023/12/20 03:47:47;;;;;;;23.33;16.83;;;;;;;22.05;58.01;100357.38;20903298;28;20387;-42
2023/12/20 03:57:49;;;;;;;21.38;14.90;;;;;;;22.20;57.83;100354.97;20909280;28;20651;-40
2023/12/20 04:07:52;;;;;;;20.60;13.90;;;;;;;22.23;57.65;100363.53;20897068;28;20282;-52
2023/12/20 04:17:54;;;;;;;18.83;13.75;;;;;;;22.20;57.34;100349.28;20859415;28;20239;-47
2023/12/20 04:27:57;;;;;;;17.55;13.68;;;;;;;22.21;56.68;100342.41;20875450;28;20582;-47
2023/12/20 04:37:58;;;;;;;17.85;13.45;;;;;;;22.19;56.43;100344.81;20903763;28;20654;-42
2023/12/20 04:48:02;;;;;;;18.63;12.77;;;;;;;22.16;56.80;100363.34;20903235;28;20651;-40
2023/12/20 04:58:04;;;;;;;17.23;11.68;;;;;;;22.07;57.00;100360.63;20896336;28;20197;-50
2023/12/20 05:08:07;;;;;;;70.55;46.30;;;;;;;22.06;58.33;100367.53;20837919;28;20347;-50
2023/12/20 05:18:09;;;;;;;115.82;79.05;;;;;;;22.14;59.47;100371.38;20875727;28;20214;-54
2023/12/20 05:28:12;;;;;;;144.45;99.57;;;;;;;22.06;58.89;100375.19;20859445;28;20224;-44
2023/12/20 05:38:14;;;;;;;216.30;143.77;;;;;;;21.95;59.35;100352.16;20887587;28;20290;-50
2023/12/20 05:48:17;;;;;;;211.20;136.02;;;;;;;22.03;61.57;100345.56;20883025;28;20651;-50
2023/12/20 05:58:18;;;;;;;183.57;120.60;;;;;;;22.02;61.50;100345.91;20885000;28;20598;-45
2023/12/20 06:08:22;;;;;;;515.58;210.63;;;;;;;21.97;62.29;100338.44;20885946;28;20254;-59
2023/12/20 06:18:24;;;;;;;319.17;147.35;;;;;;;21.85;61.79;100344.16;20877749;28;20614;-46
2023/12/20 06:28:27;;;;;;;280.60;133.00;;;;;;;21.72;61.87;100342.53;20846835;28;20230;-51
2023/12/20 06:38:29;;;;;;;253.57;120.93;;;;;;;21.65;61.60;100342.31;20881062;28;20204;-50
2023/12/20 06:48:33;;;;;;;221.32;110.47;;;;;;;21.61;61.45;100355.53;20879787;28;20630;-49
2023/12/20 06:58:35;;;;;;;199.38;100.97;;;;;;;21.56;62.00;100344.44;20881170;28;20215;-53
2023/12/20 07:08:38;;;;;;;191.60;94.25;;;;;;;21.51;61.47;100353.19;20877443;28;20224;-53
2023/12/20 07:18:40;;;;;;;169.70;84.68;;;;;;;21.44;61.76;100353.75;20872059;28;20647;-44
2023/12/20 07:28:43;;;;;;;146.38;76.97;;;;;;;21.37;62.00;100343.03;20892261;28;20226;-44
2023/12/20 07:38:45;;;;;;;139.43;72.32;;;;;;;21.35;62.03;100355.91;20890821;28;20299;-47
2023/12/20 07:48:48;;;;;;;126.95;65.70;;;;;;;21.34;61.65;100355.06;20894308;28;20325;-43
2023/12/20 07:58:50;;;;;;;123.63;62.97;;;;;;;21.32;61.66;100365.91;20894824;28;20199;-51
2023/12/20 08:08:53;;;;;;;103.88;59.20;;;;;;;21.36;61.79;100352.72;20891878;28;20259;-52
2023/12/20 08:18:54;;;;;;;100.10;55.00;;;;;;;21.34;61.48;100357.06;20888068;28;20294;-49
2023/12/20 08:28:57;;;;;;;93.93;51.85;;;;;;;21.32;61.60;100360.25;20890678;28;20227;-47
2023/12/20 08:39:00;;;;;;;86.78;49.97;;;;;;;21.30;61.20;100356.94;20885119;28;20294;-46
2023/12/20 08:49:03;;;;;;;80.43;46.42;;;;;;;21.29;61.43;100366.63;20885538;28;20270;-46
2023/12/20 08:59:05;;;;;;;72.85;43.45;;;;;;;21.30;61.60;100350.47;20874464;28;20198;-49
2023/12/20 09:09:13;;;;;;;64.75;39.53;;;;;;;21.27;61.50;100349.19;20883160;28;20220;-47
2023/12/20 09:19:15;;;;;;;66.82;38.22;;;;;;;21.30;61.28;100328.66;20868857;28;20250;-49
2023/12/20 09:29:18;;;;;;;61.63;36.88;;;;;;;21.28;61.32;100338.69;20882046;28;20319;-52
2023/12/20 09:39:21;;;;;;;57.35;35.25;;;;;;;21.23;61.13;100336.91;20880278;28;20230;-44
2023/12/20 09:49:24;;;;;;;58.67;35.72;;;;;;;21.26;61.03;100330.56;20858102;28;20217;-54
2023/12/20 09:59:26;;;;;;;54.90;31.65;;;;;;;21.28;60.53;100322.53;20844828;28;20211;-53
2023/12/20 10:09:30;;;;;;;51.45;31.58;;;;;;;21.26;61.20;100318.41;20866194;28;20615;-48
2023/12/20 10:19:31;;;;;;;50.33;30.25;;;;;;;21.22;61.14;100314.63;20872989;28;20496;-43
2023/12/20 10:29:35;;;;;;;42.67;26.92;;;;;;;21.20;60.97;100314.97;20875437;28;20227;-43
2023/12/20 10:39:37;;;;;;;40.78;25.27;;;;;;;21.24;60.71;100293.28;20863666;28;20294;-48
2023/12/20 10:49:40;;;;;;;41.78;24.80;;;;;;;21.22;60.78;100297.63;20874199;28;20649;-49
2023/12/20 10:59:42;;;;;;;39.97;23.98;;;;;;;21.22;60.49;100295.63;20884678;28;20196;-50
2023/12/20 11:09:53;;;;;;;37.60;22.30;;;;;;;21.17;60.56;100293.00;20896549;28;20219;-45
2023/12/20 11:20:11;;;;;;;37.28;22.08;;;;;;;21.20;60.81;100297.16;20890024;28;20298;-54
2023/12/20 11:30:16;;;;;;;33.33;20.88;;;;;;;21.20;60.39;100286.66;20895673;28;20262;-52
2023/12/20 11:40:19;;;;;;;31.95;20.45;;;;;;;21.21;60.36;100270.50;20888297;28;20653;-44
2023/12/20 11:50:23;;;;;;;29.73;19.13;;;;;;;21.21;60.29;100281.84;20894984;28;20243;-52
2023/12/20 12:00:25;;;;;;;27.95;18.65;;;;;;;21.18;60.52;100265.53;20889787;28;20199;-49
2023/12/20 12:10:29;;;;;;;26.98;17.52;;;;;;;21.14;60.23;100254.13;20886814;28;20319;-45
2023/12/20 12:20:31;;;;;;;28.90;16.48;;;;;;;21.11;60.58;100248.34;20890021;28;20215;-41
2023/12/20 12:30:34;;;;;;;26.58;16.50;;;;;;;21.12;60.26;100233.81;20883442;28;20314;-43
2023/12/20 12:40:36;;;;;;;22.13;14.98;;;;;;;21.12;60.56;100236.66;20878770;28;20236;-50
2023/12/20 12:50:39;;;;;;;23.48;15.18;;;;;;;21.12;60.52;100222.50;20882912;28;20260;-47
2023/12/20 13:00:42;;;;;;;22.52;14.63;;;;;;;21.05;60.40;100219.44;20872387;28;20211;-43
2023/12/20 13:10:45;;;;;;;21.98;13.82;;;;;;;21.12;60.05;100205.53;20881116;28;20631;-53
2023/12/20 13:20:47;;;;;;;19.13;13.40;;;;;;;21.12;60.08;100177.22;20888067;28;20231;-50
2023/12/20 13:30:50;;;;;;;20.08;12.77;;;;;;;21.08;60.04;100156.47;20886349;28;20246;-50
2023/12/20 13:40:51;;;;;;;19.00;12.95;;;;;;;;;;20872406;28;20609;-49
2023/12/20 13:50:55;;;;;;;17.33;11.43;;;;;;;21.04;60.42;100147.06;20882395;28;20585;-52
2023/12/20 14:00:57;;;;;;;17.45;11.65;;;;;;;21.02;60.33;100127.63;20883384;28;20200;-49
2023/12/20 14:11:01;;;;;;;15.60;10.55;;;;;;;21.00;60.09;100146.13;20896413;28;20315;-50
2023/12/20 14:21:03;;;;;;;15.57;10.77;;;;;;;20.99;59.93;100138.81;20899152;28;20200;-53
2023/12/20 14:31:06;;;;;;;15.38;10.25;;;;;;;21.12;60.14;100120.63;20909008;28;20225;-50
2023/12/20 14:41:08;;;;;;;14.38;8.95;;;;;;;21.40;59.02;100143.34;20881288;28;20299;-50
2023/12/20 14:51:11;;;;;;;13.73;9.52;;;;;;;21.54;57.94;100140.09;20885509;28;20322;-48
2023/12/20 15:01:13;;;;;;;13.68;9.00;;;;;;;21.53;58.51;100124.28;20884822;28;20298;-45
2023/12/20 15:11:16;;;;;;;13.95;9.50;;;;;;;21.50;58.16;100127.84;20882293;28;20699;-44
2023/12/20 15:21:18;;;;;;;12.75;8.23;;;;;;;21.44;58.37;100118.78;20851500;28;20614;-41
2023/12/20 15:31:26;;;;;;;12.30;8.25;;;;;;;21.43;58.47;100119.13;20867746;28;20620;-50
2023/12/20 15:41:27;;;;;;;12.38;8.30;;;;;;;21.42;58.36;100132.50;20885104;28;20255;-48
2023/12/20 15:51:30;;;;;;;10.10;7.25;;;;;;;21.45;58.61;100128.09;20890088;28;20220;-53
2023/12/20 16:01:32;;;;;;;13.45;6.20;;;;;;;21.42;58.12;100106.19;20863558;28;20192;-40
2023/12/20 16:11:35;;;;;;;9.98;6.90;;;;;;;21.37;58.34;100090.28;20869471;28;20212;-49
2023/12/20 16:21:37;;;;;;;10.32;6.38;;;;;;;21.33;58.66;100097.81;20849321;28;20203;-51
2023/12/20 16:31:40;;;;;;;15.18;8.50;;;;;;;21.60;57.69;100102.66;20883480;28;20216;-52
2023/12/20 16:41:42;;;;;;;94.63;60.95;;;;;;;21.98;57.11;100090.75;20829092;28;20231;-48
2023/12/20 16:51:45;;;;;;;92.47;59.88;;;;;;;22.18;57.21;100085.22;20842901;28;20222;-53
2023/12/20 17:01:47;;;;;;;82.55;53.13;;;;;;;22.32;57.16;100071.41;20842427;28;20212;-51
2023/12/20 17:11:49;;;;;;;119.80;83.90;;;;;;;22.35;56.93;100057.28;20872313;28;20512;-52
2023/12/20 17:21:51;;;;;;;177.35;125.13;;;;;;;22.42;57.43;100043.28;20879487;28;20203;-55
2023/12/20 17:31:55;;;;;;;155.00;112.00;;;;;;;22.46;57.30;100017.84;20786536;28;20232;-52
2023/12/20 17:41:56;;;;;;;132.43;97.85;;;;;;;22.53;57.10;100037.88;20865218;28;20232;-48
2023/12/20 17:51:59;;;;;;;285.98;198.02;;;;;;;22.65;57.22;100008.56;20870792;28;20215;-48
2023/12/20 18:02:02;;;;;;;268.05;185.25;;;;;;;23.08;57.00;99996.13;20866904;28;20192;-52
2023/12/20 18:12:06;;;;;;;252.93;170.32;;;;;;;23.39;56.31;99984.56;20860680;28;20635;-47
2023/12/20 18:22:08;;;;;;;193.45;132.15;;;;;;;23.56;55.07;99976.78;20886394;28;20227;-47
2023/12/20 18:32:11;;;;;;;210.52;143.27;;;;;;;23.62;56.13;99955.41;20878589;28;20234;-51
2023/12/20 18:42:13;;;;;;;192.90;137.52;;;;;;;23.73;55.57;99947.88;20895074;28;20249;-50
2023/12/20 18:52:16;;;;;;;170.30;121.03;;;;;;;23.77;54.94;99920.31;20882080;28;20227;-53
2023/12/20 19:02:18;;;;;;;298.33;215.27;;;;;;;23.82;56.07;99917.16;20819262;28;20224;-46
2023/12/20 19:12:21;;;;;;;256.27;176.48;;;;;;;23.83;56.62;99907.44;20851395;28;20507;-52
2023/12/20 19:22:23;;;;;;;232.27;162.15;;;;;;;23.85;55.96;99876.63;20872242;28;20206;-46
2023/12/20 19:32:26;;;;;;;308.25;224.25;;;;;;;23.95;56.21;99858.91;21607457;22;20313;-43
2023/12/20 19:42:30;;;;;;;262.10;187.55;;;;;;;23.95;55.91;99856.06;20602293;28;20222;-43
2023/12/20 19:52:33;;;;;;;233.52;159.80;;;;;;;23.97;56.75;99845.13;20535477;28;20696;-42
2023/12/20 20:02:35;;;;;;;247.95;170.20;;;;;;;23.97;56.74;99815.88;20576703;28;20225;-42
2023/12/20 20:12:40;;;;;;;268.50;197.98;;;;;;;23.97;56.41;99798.84;20565385;28;20235;-41
2023/12/20 20:22:42;;;;;;;240.63;169.60;;;;;;;23.90;57.11;99779.66;20576356;28;20675;-43
2023/12/20 20:32:45;;;;;;;204.45;146.00;;;;;;;23.87;56.92;99766.22;20561863;28;20229;-43
2023/12/20 20:42:47;;;;;;;198.15;140.15;;;;;;;23.76;57.41;99768.09;20564167;28;20218;-42
2023/12/20 20:52:50;;;;;;;213.70;149.82;;;;;;;23.75;56.89;99758.75;20567825;28;20595;-42
2023/12/20 21:02:52;;;;;;;190.90;133.70;;;;;;;23.67;57.01;99756.19;20562714;28;20768;-42
2023/12/20 21:12:55;;;;;;;166.90;118.22;;;;;;;23.61;57.84;99735.00;20584395;28;20321;-42
2023/12/20 21:22:58;;;;;;;145.82;101.25;;;;;;;23.57;57.83;99746.31;20575985;28;20313;-41
2023/12/20 21:33:01;;;;;;;125.65;91.05;;;;;;;23.51;58.36;99723.09;20555102;28;20253;-40
2023/12/20 21:43:03;;;;;;;107.47;75.80;;;;;;;23.47;58.19;99696.66;20542660;28;20229;-40
2023/12/20 21:53:10;;;;;;;92.45;65.43;;;;;;;23.43;58.94;99681.59;20563006;28;20696;-41
2023/12/20 22:03:12;;;;;;;81.35;58.10;;;;;;;23.40;58.91;99653.13;20560546;28;20877;-41
2023/12/20 22:13:15;;;;;;;70.57;50.17;;;;;;;23.31;58.94;99641.25;20554712;28;20226;-41
2023/12/20 22:23:17;;;;;;;62.30;44.47;;;;;;;23.29;59.07;99626.63;20575725;28;20218;-42
2023/12/20 22:33:20;;;;;;;54.28;39.47;;;;;;;23.28;59.23;99657.03;20590421;28;20260;-42
2023/12/20 22:43:22;;;;;;;51.45;38.60;;;;;;;23.25;58.89;99652.09;20582908;28;20223;-41
2023/12/20 22:53:25;;;;;;;48.78;33.00;;;;;;;23.22;59.45;99650.06;20563704;28;20233;-43
2023/12/20 23:03:26;;;;;;;38.72;29.20;;;;;;;23.21;59.35;99642.75;20550755;28;20230;-43
2023/12/20 23:13:29;;;;;;;35.38;26.27;;;;;;;23.18;59.76;99640.66;20575803;28;20230;-42
2023/12/20 23:23:31;;;;;;;32.53;23.88;;;;;;;23.21;59.83;99634.22;20568347;28;20223;-41
2023/12/20 23:33:34;;;;;;;28.25;21.67;;;;;;;23.16;60.07;99583.44;20569762;28;20222;-42
2023/12/20 23:43:36;;;;;;;27.67;21.17;;;;;;;23.21;60.90;99568.94;20572375;28;20317;-42
2023/12/20 23:53:39;;;;;;;26.23;18.90;;;;;;;23.20;60.47;99544.59;20568882;28;20230;-43
